sensor_id;sensor_type;location;lat;lon;timestamp;P1;durP1;ratioP1;P2;durP2;ratioP2
76459;SDS011;65299;46.084;18.762;2023-03-05T00:02:53;11.87;;;4.90;;
76459;SDS011;65299;46.084;18.762;2023-03-05T00:05:57;11.38;;;4.85;;
76459;SDS011;65299;46.084;18.762;2023-03-05T00:08:57;12.87;;;5.00;;
76459;SDS011;65299;46.084;18.762;2023-03-05T00:11:58;14.60;;;5.63;;
76459;SDS011;65299;46.084;18.762;2023-03-05T00:14:58;10.03;;;3.90;;
76459;SDS011;65299;46.084;18.762;2023-03-05T00:17:59;10.38;;;4.68;;
76459;SDS011;65299;46.084;18.762;2023-03-05T00:20:59;13.57;;;4.57;;
76459;SDS011;65299;46.084;18.762;2023-03-05T00:24:00;11.93;;;4.83;;
76459;SDS011;65299;46.084;18.762;2023-03-05T00:27:02;11.80;;;3.95;;
76459;SDS011;65299;46.084;18.762;2023-03-05T00:30:03;11.90;;;4.75;;
76459;SDS011;65299;46.084;18.762;2023-03-05T00:33:05;11.07;;;4.95;;
76459;SDS011;65299;46.084;18.762;2023-03-05T00:36:05;15.47;;;5.63;;
76459;SDS011;65299;46.084;18.762;2023-03-05T00:39:06;13.95;;;5.13;;
76459;SDS011;65299;46.084;18.762;2023-03-05T00:42:07;14.27;;;5.07;;
76459;SDS011;65299;46.084;18.762;2023-03-05T00:45:07;12.63;;;5.40;;
76459;SDS011;65299;46.084;18.762;2023-03-05T00:48:09;12.48;;;5.60;;
76459;SDS011;65299;46.084;18.762;2023-03-05T00:51:09;12.40;;;6.00;;
76459;SDS011;65299;46.084;18.762;2023-03-05T00:54:10;12.30;;;5.60;;
76459;SDS011;65299;46.084;18.762;2023-03-05T00:57:11;11.33;;;4.93;;
76459;SDS011;65299;46.084;18.762;2023-03-05T01:00:12;12.60;;;5.73;;
76459;SDS011;65299;46.084;18.762;2023-03-05T01:03:13;14.60;;;5.32;;
76459;SDS011;65299;46.084;18.762;2023-03-05T01:06:13;13.83;;;4.83;;
76459;SDS011;65299;46.084;18.762;2023-03-05T01:09:16;11.55;;;4.90;;
76459;SDS011;65299;46.084;18.762;2023-03-05T01:12:16;12.37;;;4.93;;
76459;SDS011;65299;46.084;18.762;2023-03-05T01:15:17;12.13;;;5.53;;
76459;SDS011;65299;46.084;18.762;2023-03-05T01:18:18;7.70;;;3.67;;
76459;SDS011;65299;46.084;18.762;2023-03-05T01:21:19;11.73;;;4.85;;
76459;SDS011;65299;46.084;18.762;2023-03-05T01:24:21;11.45;;;4.75;;
76459;SDS011;65299;46.084;18.762;2023-03-05T01:27:21;12.13;;;4.93;;
76459;SDS011;65299;46.084;18.762;2023-03-05T01:30:22;12.10;;;5.13;;
76459;SDS011;65299;46.084;18.762;2023-03-05T01:33:22;8.53;;;3.60;;
76459;SDS011;65299;46.084;18.762;2023-03-05T01:36:23;8.48;;;4.25;;
76459;SDS011;65299;46.084;18.762;2023-03-05T01:39:24;7.20;;;3.50;;
76459;SDS011;65299;46.084;18.762;2023-03-05T01:42:24;9.60;;;3.80;;
76459;SDS011;65299;46.084;18.762;2023-03-05T01:45:25;8.80;;;4.00;;
76459;SDS011;65299;46.084;18.762;2023-03-05T01:48:26;8.40;;;3.40;;
76459;SDS011;65299;46.084;18.762;2023-03-05T01:51:28;6.40;;;2.13;;
76459;SDS011;65299;46.084;18.762;2023-03-05T01:54:40;8.88;;;3.80;;
76459;SDS011;65299;46.084;18.762;2023-03-05T01:57:48;7.88;;;3.15;;
76459;SDS011;65299;46.084;18.762;2023-03-05T02:00:54;6.50;;;2.88;;
76459;SDS011;65299;46.084;18.762;2023-03-05T02:03:55;7.30;;;3.43;;
76459;SDS011;65299;46.084;18.762;2023-03-05T02:06:56;6.03;;;2.80;;
76459;SDS011;65299;46.084;18.762;2023-03-05T02:09:56;9.03;;;3.73;;
76459;SDS011;65299;46.084;18.762;2023-03-05T02:12:58;8.05;;;3.88;;
76459;SDS011;65299;46.084;18.762;2023-03-05T02:16:04;10.17;;;3.20;;
76459;SDS011;65299;46.084;18.762;2023-03-05T02:19:06;10.30;;;3.85;;
76459;SDS011;65299;46.084;18.762;2023-03-05T02:22:13;9.20;;;3.28;;
76459;SDS011;65299;46.084;18.762;2023-03-05T02:25:18;9.82;;;4.22;;
76459;SDS011;65299;46.084;18.762;2023-03-05T02:28:32;10.27;;;4.35;;
76459;SDS011;65299;46.084;18.762;2023-03-05T02:31:37;10.90;;;3.87;;
76459;SDS011;65299;46.084;18.762;2023-03-05T02:34:38;8.88;;;4.20;;
76459;SDS011;65299;46.084;18.762;2023-03-05T02:37:38;10.43;;;3.80;;
76459;SDS011;65299;46.084;18.762;2023-03-05T02:40:40;9.20;;;3.83;;
76459;SDS011;65299;46.084;18.762;2023-03-05T02:43:40;8.70;;;3.33;;
76459;SDS011;65299;46.084;18.762;2023-03-05T02:46:41;9.83;;;3.20;;
76459;SDS011;65299;46.084;18.762;2023-03-05T02:49:41;6.50;;;3.03;;
76459;SDS011;65299;46.084;18.762;2023-03-05T02:52:42;6.60;;;3.40;;
76459;SDS011;65299;46.084;18.762;2023-03-05T02:55:45;8.00;;;3.03;;
76459;SDS011;65299;46.084;18.762;2023-03-05T02:58:46;9.32;;;3.67;;
76459;SDS011;65299;46.084;18.762;2023-03-05T03:01:47;7.77;;;3.47;;
76459;SDS011;65299;46.084;18.762;2023-03-05T03:04:47;8.45;;;3.53;;
76459;SDS011;65299;46.084;18.762;2023-03-05T03:07:48;7.50;;;3.37;;
76459;SDS011;65299;46.084;18.762;2023-03-05T03:10:48;9.43;;;4.05;;
76459;SDS011;65299;46.084;18.762;2023-03-05T03:13:49;6.77;;;3.47;;
76459;SDS011;65299;46.084;18.762;2023-03-05T03:16:49;6.53;;;3.30;;
76459;SDS011;65299;46.084;18.762;2023-03-05T03:19:50;8.07;;;3.60;;
76459;SDS011;65299;46.084;18.762;2023-03-05T03:22:50;7.00;;;3.38;;
76459;SDS011;65299;46.084;18.762;2023-03-05T03:25:51;9.87;;;4.10;;
76459;SDS011;65299;46.084;18.762;2023-03-05T03:28:51;9.52;;;3.35;;
76459;SDS011;65299;46.084;18.762;2023-03-05T03:31:52;7.70;;;3.50;;
76459;SDS011;65299;46.084;18.762;2023-03-05T03:34:52;9.17;;;3.37;;
76459;SDS011;65299;46.084;18.762;2023-03-05T03:37:53;8.40;;;3.75;;
76459;SDS011;65299;46.084;18.762;2023-03-05T03:40:53;10.40;;;4.33;;
76459;SDS011;65299;46.084;18.762;2023-03-05T03:43:54;8.53;;;3.37;;
76459;SDS011;65299;46.084;18.762;2023-03-05T03:46:54;9.18;;;4.03;;
76459;SDS011;65299;46.084;18.762;2023-03-05T03:49:55;6.13;;;3.17;;
76459;SDS011;65299;46.084;18.762;2023-03-05T03:52:56;7.97;;;3.25;;
76459;SDS011;65299;46.084;18.762;2023-03-05T03:55:57;7.77;;;3.07;;
76459;SDS011;65299;46.084;18.762;2023-03-05T03:58:58;7.40;;;3.70;;
76459;SDS011;65299;46.084;18.762;2023-03-05T04:01:59;7.13;;;3.30;;
76459;SDS011;65299;46.084;18.762;2023-03-05T04:04:59;8.07;;;3.10;;
76459;SDS011;65299;46.084;18.762;2023-03-05T04:08:00;8.40;;;3.20;;
76459;SDS011;65299;46.084;18.762;2023-03-05T04:11:00;7.37;;;2.90;;
76459;SDS011;65299;46.084;18.762;2023-03-05T04:14:02;4.13;;;1.92;;
76459;SDS011;65299;46.084;18.762;2023-03-05T04:17:03;6.53;;;2.47;;
76459;SDS011;65299;46.084;18.762;2023-03-05T04:20:04;7.97;;;3.30;;
76459;SDS011;65299;46.084;18.762;2023-03-05T04:23:07;8.98;;;2.72;;
76459;SDS011;65299;46.084;18.762;2023-03-05T04:26:08;6.10;;;1.95;;
76459;SDS011;65299;46.084;18.762;2023-03-05T04:29:08;6.03;;;2.20;;
76459;SDS011;65299;46.084;18.762;2023-03-05T04:32:09;5.40;;;2.33;;
76459;SDS011;65299;46.084;18.762;2023-03-05T04:35:10;8.33;;;3.00;;
76459;SDS011;65299;46.084;18.762;2023-03-05T04:38:10;7.33;;;2.63;;
76459;SDS011;65299;46.084;18.762;2023-03-05T04:41:11;6.35;;;2.65;;
76459;SDS011;65299;46.084;18.762;2023-03-05T04:44:11;6.93;;;2.83;;
76459;SDS011;65299;46.084;18.762;2023-03-05T04:47:12;5.57;;;2.55;;
76459;SDS011;65299;46.084;18.762;2023-03-05T04:50:13;6.57;;;2.70;;
76459;SDS011;65299;46.084;18.762;2023-03-05T04:53:14;8.52;;;3.05;;
76459;SDS011;65299;46.084;18.762;2023-03-05T04:56:14;6.57;;;2.63;;
76459;SDS011;65299;46.084;18.762;2023-03-05T04:59:15;8.73;;;3.10;;
76459;SDS011;65299;46.084;18.762;2023-03-05T05:02:15;8.57;;;3.93;;
76459;SDS011;65299;46.084;18.762;2023-03-05T05:05:20;5.77;;;2.67;;
76459;SDS011;65299;46.084;18.762;2023-03-05T05:08:22;8.35;;;2.72;;
76459;SDS011;65299;46.084;18.762;2023-03-05T05:11:23;10.10;;;3.53;;
76459;SDS011;65299;46.084;18.762;2023-03-05T05:14:24;14.57;;;5.90;;
76459;SDS011;65299;46.084;18.762;2023-03-05T05:17:24;19.80;;;6.77;;
76459;SDS011;65299;46.084;18.762;2023-03-05T05:20:25;24.90;;;9.73;;
76459;SDS011;65299;46.084;18.762;2023-03-05T05:23:25;10.30;;;4.33;;
76459;SDS011;65299;46.084;18.762;2023-03-05T05:26:26;11.48;;;3.78;;
76459;SDS011;65299;46.084;18.762;2023-03-05T05:29:27;14.50;;;3.47;;
76459;SDS011;65299;46.084;18.762;2023-03-05T05:32:27;11.00;;;3.50;;
76459;SDS011;65299;46.084;18.762;2023-03-05T05:35:28;13.43;;;5.03;;
76459;SDS011;65299;46.084;18.762;2023-03-05T05:38:28;12.60;;;5.07;;
76459;SDS011;65299;46.084;18.762;2023-03-05T05:41:29;9.80;;;4.23;;
76459;SDS011;65299;46.084;18.762;2023-03-05T05:44:29;15.30;;;4.03;;
76459;SDS011;65299;46.084;18.762;2023-03-05T05:47:30;12.80;;;4.57;;
76459;SDS011;65299;46.084;18.762;2023-03-05T05:50:30;11.40;;;5.00;;
76459;SDS011;65299;46.084;18.762;2023-03-05T05:53:31;13.23;;;5.97;;
76459;SDS011;65299;46.084;18.762;2023-03-05T05:56:31;15.20;;;7.90;;
76459;SDS011;65299;46.084;18.762;2023-03-05T05:59:33;14.80;;;6.75;;
76459;SDS011;65299;46.084;18.762;2023-03-05T06:02:33;10.15;;;5.32;;
76459;SDS011;65299;46.084;18.762;2023-03-05T06:05:37;15.10;;;6.90;;
76459;SDS011;65299;46.084;18.762;2023-03-05T06:08:39;14.93;;;6.07;;
76459;SDS011;65299;46.084;18.762;2023-03-05T06:11:40;15.18;;;6.97;;
76459;SDS011;65299;46.084;18.762;2023-03-05T06:14:41;15.35;;;8.55;;
76459;SDS011;65299;46.084;18.762;2023-03-05T06:17:41;13.17;;;6.33;;
76459;SDS011;65299;46.084;18.762;2023-03-05T06:20:41;13.80;;;5.97;;
76459;SDS011;65299;46.084;18.762;2023-03-05T06:23:42;11.37;;;6.07;;
76459;SDS011;65299;46.084;18.762;2023-03-05T06:26:44;10.00;;;5.32;;
76459;SDS011;65299;46.084;18.762;2023-03-05T06:29:45;12.88;;;6.03;;
76459;SDS011;65299;46.084;18.762;2023-03-05T06:32:46;11.83;;;5.47;;
76459;SDS011;65299;46.084;18.762;2023-03-05T06:35:46;11.57;;;4.60;;
76459;SDS011;65299;46.084;18.762;2023-03-05T06:38:47;13.97;;;5.80;;
76459;SDS011;65299;46.084;18.762;2023-03-05T06:41:51;22.13;;;8.68;;
76459;SDS011;65299;46.084;18.762;2023-03-05T06:44:51;24.23;;;9.75;;
76459;SDS011;65299;46.084;18.762;2023-03-05T06:47:51;14.57;;;7.23;;
76459;SDS011;65299;46.084;18.762;2023-03-05T06:50:52;16.87;;;6.57;;
76459;SDS011;65299;46.084;18.762;2023-03-05T06:53:53;21.37;;;7.60;;
76459;SDS011;65299;46.084;18.762;2023-03-05T06:56:54;16.02;;;6.18;;
76459;SDS011;65299;46.084;18.762;2023-03-05T06:59:55;12.90;;;5.20;;
76459;SDS011;65299;46.084;18.762;2023-03-05T07:02:55;11.67;;;5.43;;
76459;SDS011;65299;46.084;18.762;2023-03-05T07:05:56;6.43;;;3.27;;
76459;SDS011;65299;46.084;18.762;2023-03-05T07:08:57;12.35;;;4.88;;
76459;SDS011;65299;46.084;18.762;2023-03-05T07:12:00;8.77;;;3.13;;
76459;SDS011;65299;46.084;18.762;2023-03-05T07:15:00;11.75;;;4.25;;
76459;SDS011;65299;46.084;18.762;2023-03-05T07:18:01;12.80;;;4.17;;
76459;SDS011;65299;46.084;18.762;2023-03-05T07:21:02;11.30;;;4.17;;
76459;SDS011;65299;46.084;18.762;2023-03-05T07:24:04;11.00;;;4.85;;
76459;SDS011;65299;46.084;18.762;2023-03-05T07:27:05;10.90;;;3.85;;
76459;SDS011;65299;46.084;18.762;2023-03-05T07:30:05;11.27;;;4.03;;
76459;SDS011;65299;46.084;18.762;2023-03-05T07:33:06;10.27;;;3.63;;
76459;SDS011;65299;46.084;18.762;2023-03-05T07:36:07;10.47;;;4.40;;
76459;SDS011;65299;46.084;18.762;2023-03-05T07:39:09;11.43;;;4.47;;
76459;SDS011;65299;46.084;18.762;2023-03-05T07:42:11;8.27;;;3.70;;
76459;SDS011;65299;46.084;18.762;2023-03-05T07:45:11;10.53;;;4.47;;
76459;SDS011;65299;46.084;18.762;2023-03-05T07:48:13;8.25;;;3.67;;
76459;SDS011;65299;46.084;18.762;2023-03-05T07:51:20;9.80;;;3.40;;
76459;SDS011;65299;46.084;18.762;2023-03-05T07:54:21;10.20;;;3.80;;
76459;SDS011;65299;46.084;18.762;2023-03-05T07:57:22;10.43;;;3.60;;
76459;SDS011;65299;46.084;18.762;2023-03-05T08:00:22;9.60;;;3.93;;
76459;SDS011;65299;46.084;18.762;2023-03-05T08:03:23;7.43;;;3.37;;
76459;SDS011;65299;46.084;18.762;2023-03-05T08:06:23;11.32;;;5.10;;
76459;SDS011;65299;46.084;18.762;2023-03-05T08:09:24;8.80;;;4.20;;
76459;SDS011;65299;46.084;18.762;2023-03-05T08:12:24;8.48;;;4.38;;
76459;SDS011;65299;46.084;18.762;2023-03-05T08:15:25;10.07;;;3.73;;
76459;SDS011;65299;46.084;18.762;2023-03-05T08:18:25;10.30;;;4.20;;
76459;SDS011;65299;46.084;18.762;2023-03-05T08:21:30;10.77;;;4.23;;
76459;SDS011;65299;46.084;18.762;2023-03-05T08:24:32;8.63;;;3.60;;
76459;SDS011;65299;46.084;18.762;2023-03-05T08:27:34;9.00;;;3.63;;
76459;SDS011;65299;46.084;18.762;2023-03-05T08:30:38;8.63;;;3.20;;
76459;SDS011;65299;46.084;18.762;2023-03-05T08:33:39;9.50;;;4.32;;
76459;SDS011;65299;46.084;18.762;2023-03-05T08:36:40;7.60;;;3.78;;
76459;SDS011;65299;46.084;18.762;2023-03-05T08:39:40;6.93;;;3.03;;
76459;SDS011;65299;46.084;18.762;2023-03-05T08:42:41;8.93;;;4.15;;
76459;SDS011;65299;46.084;18.762;2023-03-05T08:45:41;6.40;;;2.93;;
76459;SDS011;65299;46.084;18.762;2023-03-05T08:48:42;11.43;;;5.60;;
76459;SDS011;65299;46.084;18.762;2023-03-05T08:51:42;9.23;;;4.80;;
76459;SDS011;65299;46.084;18.762;2023-03-05T08:54:43;8.50;;;3.50;;
76459;SDS011;65299;46.084;18.762;2023-03-05T08:57:43;10.40;;;4.40;;
76459;SDS011;65299;46.084;18.762;2023-03-05T09:00:44;10.27;;;4.57;;
76459;SDS011;65299;46.084;18.762;2023-03-05T09:03:44;8.87;;;3.97;;
76459;SDS011;65299;46.084;18.762;2023-03-05T09:06:45;11.23;;;5.30;;
76459;SDS011;65299;46.084;18.762;2023-03-05T09:09:45;10.43;;;4.90;;
76459;SDS011;65299;46.084;18.762;2023-03-05T09:12:45;7.43;;;3.40;;
76459;SDS011;65299;46.084;18.762;2023-03-05T09:15:55;9.45;;;3.70;;
76459;SDS011;65299;46.084;18.762;2023-03-05T09:19:03;11.90;;;5.40;;
76459;SDS011;65299;46.084;18.762;2023-03-05T09:22:04;12.23;;;5.60;;
76459;SDS011;65299;46.084;18.762;2023-03-05T09:25:05;12.10;;;4.37;;
76459;SDS011;65299;46.084;18.762;2023-03-05T09:28:06;5.75;;;3.25;;
76459;SDS011;65299;46.084;18.762;2023-03-05T09:31:08;9.05;;;3.85;;
76459;SDS011;65299;46.084;18.762;2023-03-05T09:34:09;11.43;;;4.23;;
76459;SDS011;65299;46.084;18.762;2023-03-05T09:37:10;7.47;;;4.07;;
76459;SDS011;65299;46.084;18.762;2023-03-05T09:40:13;12.18;;;5.53;;
76459;SDS011;65299;46.084;18.762;2023-03-05T09:44:21;12.63;;;5.10;;
76459;SDS011;65299;46.084;18.762;2023-03-05T09:53:37;10.57;;;4.75;;
76459;SDS011;65299;46.084;18.762;2023-03-05T09:56:57;9.82;;;4.78;;
76459;SDS011;65299;46.084;18.762;2023-03-05T10:00:10;11.27;;;4.50;;
76459;SDS011;65299;46.084;18.762;2023-03-05T10:10:09;8.07;;;4.00;;
76459;SDS011;65299;46.084;18.762;2023-03-05T10:13:25;10.13;;;4.47;;
76459;SDS011;65299;46.084;18.762;2023-03-05T10:23:29;9.70;;;4.00;;
76459;SDS011;65299;46.084;18.762;2023-03-05T10:29:54;7.38;;;3.70;;
76459;SDS011;65299;46.084;18.762;2023-03-05T10:33:14;8.87;;;4.17;;
76459;SDS011;65299;46.084;18.762;2023-03-05T10:40:22;7.07;;;2.80;;
76459;SDS011;65299;46.084;18.762;2023-03-05T10:47:20;8.10;;;3.55;;
76459;SDS011;65299;46.084;18.762;2023-03-05T10:50:23;6.97;;;3.70;;
76459;SDS011;65299;46.084;18.762;2023-03-05T10:53:32;9.23;;;4.05;;
76459;SDS011;65299;46.084;18.762;2023-03-05T10:56:37;11.13;;;4.40;;
76459;SDS011;65299;46.084;18.762;2023-03-05T10:59:39;7.77;;;3.23;;
76459;SDS011;65299;46.084;18.762;2023-03-05T11:06:03;6.07;;;2.88;;
76459;SDS011;65299;46.084;18.762;2023-03-05T11:12:19;7.72;;;3.92;;
76459;SDS011;65299;46.084;18.762;2023-03-05T11:15:25;8.60;;;3.92;;
76459;SDS011;65299;46.084;18.762;2023-03-05T11:18:27;7.60;;;3.42;;
76459;SDS011;65299;46.084;18.762;2023-03-05T11:21:33;10.98;;;3.85;;
76459;SDS011;65299;46.084;18.762;2023-03-05T11:24:33;8.60;;;4.83;;
76459;SDS011;65299;46.084;18.762;2023-03-05T11:27:34;7.20;;;3.37;;
76459;SDS011;65299;46.084;18.762;2023-03-05T11:30:37;5.85;;;3.03;;
76459;SDS011;65299;46.084;18.762;2023-03-05T11:33:38;6.30;;;3.38;;
76459;SDS011;65299;46.084;18.762;2023-03-05T11:36:40;6.23;;;3.40;;
76459;SDS011;65299;46.084;18.762;2023-03-05T11:39:41;9.45;;;3.92;;
76459;SDS011;65299;46.084;18.762;2023-03-05T11:42:42;6.90;;;2.83;;
76459;SDS011;65299;46.084;18.762;2023-03-05T11:45:43;7.25;;;3.70;;
76459;SDS011;65299;46.084;18.762;2023-03-05T11:48:46;6.32;;;3.33;;
76459;SDS011;65299;46.084;18.762;2023-03-05T11:51:50;5.30;;;3.13;;
76459;SDS011;65299;46.084;18.762;2023-03-05T11:54:57;10.90;;;5.17;;
76459;SDS011;65299;46.084;18.762;2023-03-05T12:01:34;7.72;;;3.60;;
76459;SDS011;65299;46.084;18.762;2023-03-05T12:04:38;9.90;;;4.50;;
76459;SDS011;65299;46.084;18.762;2023-03-05T12:07:40;6.23;;;3.43;;
76459;SDS011;65299;46.084;18.762;2023-03-05T12:10:44;6.68;;;3.15;;
76459;SDS011;65299;46.084;18.762;2023-03-05T12:13:46;4.57;;;2.77;;
76459;SDS011;65299;46.084;18.762;2023-03-05T12:17:35;5.25;;;2.88;;
76459;SDS011;65299;46.084;18.762;2023-03-05T12:20:47;8.82;;;3.35;;
76459;SDS011;65299;46.084;18.762;2023-03-05T12:24:03;5.30;;;3.05;;
76459;SDS011;65299;46.084;18.762;2023-03-05T12:27:32;7.03;;;3.10;;
76459;SDS011;65299;46.084;18.762;2023-03-05T12:33:41;5.53;;;3.22;;
76459;SDS011;65299;46.084;18.762;2023-03-05T12:36:42;6.53;;;3.15;;
76459;SDS011;65299;46.084;18.762;2023-03-05T12:42:45;7.47;;;3.30;;
76459;SDS011;65299;46.084;18.762;2023-03-05T12:52:28;7.57;;;3.33;;
76459;SDS011;65299;46.084;18.762;2023-03-05T12:58:46;7.33;;;3.03;;
76459;SDS011;65299;46.084;18.762;2023-03-05T13:01:52;5.90;;;3.00;;
76459;SDS011;65299;46.084;18.762;2023-03-05T13:04:56;5.95;;;3.17;;
76459;SDS011;65299;46.084;18.762;2023-03-05T13:08:10;7.13;;;3.50;;
76459;SDS011;65299;46.084;18.762;2023-03-05T13:11:17;6.47;;;3.65;;
76459;SDS011;65299;46.084;18.762;2023-03-05T13:14:36;5.90;;;3.23;;
76459;SDS011;65299;46.084;18.762;2023-03-05T13:17:53;9.32;;;3.42;;
76459;SDS011;65299;46.084;18.762;2023-03-05T13:24:16;5.82;;;2.90;;
76459;SDS011;65299;46.084;18.762;2023-03-05T13:27:28;4.90;;;2.60;;
76459;SDS011;65299;46.084;18.762;2023-03-05T13:30:30;5.40;;;2.40;;
76459;SDS011;65299;46.084;18.762;2023-03-05T13:33:32;5.63;;;2.60;;
76459;SDS011;65299;46.084;18.762;2023-03-05T13:36:35;6.47;;;3.20;;
76459;SDS011;65299;46.084;18.762;2023-03-05T13:39:39;8.50;;;4.23;;
76459;SDS011;65299;46.084;18.762;2023-03-05T13:42:46;9.55;;;4.88;;
76459;SDS011;65299;46.084;18.762;2023-03-05T13:45:51;8.98;;;3.78;;
76459;SDS011;65299;46.084;18.762;2023-03-05T13:48:54;9.97;;;4.53;;
76459;SDS011;65299;46.084;18.762;2023-03-05T13:51:56;11.00;;;5.78;;
76459;SDS011;65299;46.084;18.762;2023-03-05T13:54:59;10.18;;;4.53;;
76459;SDS011;65299;46.084;18.762;2023-03-05T13:58:01;10.95;;;5.75;;
76459;SDS011;65299;46.084;18.762;2023-03-05T14:01:03;7.00;;;3.80;;
76459;SDS011;65299;46.084;18.762;2023-03-05T14:10:36;11.63;;;6.40;;
76459;SDS011;65299;46.084;18.762;2023-03-05T14:13:37;12.02;;;5.68;;
76459;SDS011;65299;46.084;18.762;2023-03-05T14:16:38;17.85;;;7.97;;
76459;SDS011;65299;46.084;18.762;2023-03-05T14:19:39;11.20;;;5.67;;
76459;SDS011;65299;46.084;18.762;2023-03-05T14:22:40;9.77;;;4.33;;
76459;SDS011;65299;46.084;18.762;2023-03-05T14:25:42;12.48;;;5.82;;
76459;SDS011;65299;46.084;18.762;2023-03-05T14:28:42;9.02;;;4.88;;
76459;SDS011;65299;46.084;18.762;2023-03-05T14:31:53;11.73;;;5.80;;
76459;SDS011;65299;46.084;18.762;2023-03-05T14:34:57;10.27;;;4.82;;
76459;SDS011;65299;46.084;18.762;2023-03-05T14:37:59;12.68;;;5.80;;
76459;SDS011;65299;46.084;18.762;2023-03-05T14:44:29;14.52;;;7.50;;
76459;SDS011;65299;46.084;18.762;2023-03-05T14:47:29;13.10;;;6.80;;
76459;SDS011;65299;46.084;18.762;2023-03-05T14:50:37;11.13;;;5.47;;
76459;SDS011;65299;46.084;18.762;2023-03-05T14:53:43;11.88;;;5.45;;
76459;SDS011;65299;46.084;18.762;2023-03-05T14:56:45;13.33;;;6.63;;
76459;SDS011;65299;46.084;18.762;2023-03-05T14:59:46;14.43;;;6.35;;
76459;SDS011;65299;46.084;18.762;2023-03-05T15:02:47;17.08;;;6.28;;
76459;SDS011;65299;46.084;18.762;2023-03-05T15:05:52;16.93;;;6.97;;
76459;SDS011;65299;46.084;18.762;2023-03-05T15:08:54;8.27;;;4.18;;
76459;SDS011;65299;46.084;18.762;2023-03-05T15:11:54;29.17;;;12.50;;
76459;SDS011;65299;46.084;18.762;2023-03-05T15:14:55;19.92;;;8.15;;
76459;SDS011;65299;46.084;18.762;2023-03-05T15:17:56;29.57;;;11.87;;
76459;SDS011;65299;46.084;18.762;2023-03-05T15:20:56;22.33;;;10.50;;
76459;SDS011;65299;46.084;18.762;2023-03-05T15:23:57;9.93;;;4.33;;
76459;SDS011;65299;46.084;18.762;2023-03-05T15:26:58;24.38;;;9.88;;
76459;SDS011;65299;46.084;18.762;2023-03-05T15:29:58;25.13;;;11.53;;
76459;SDS011;65299;46.084;18.762;2023-03-05T15:33:00;27.17;;;12.20;;
76459;SDS011;65299;46.084;18.762;2023-03-05T15:36:03;18.08;;;8.75;;
76459;SDS011;65299;46.084;18.762;2023-03-05T15:39:04;17.45;;;7.68;;
76459;SDS011;65299;46.084;18.762;2023-03-05T15:42:04;22.10;;;10.23;;
76459;SDS011;65299;46.084;18.762;2023-03-05T15:45:05;26.90;;;12.03;;
76459;SDS011;65299;46.084;18.762;2023-03-05T15:48:06;30.90;;;11.68;;
76459;SDS011;65299;46.084;18.762;2023-03-05T15:51:07;50.42;;;18.30;;
76459;SDS011;65299;46.084;18.762;2023-03-05T15:54:07;20.10;;;9.70;;
76459;SDS011;65299;46.084;18.762;2023-03-05T15:57:09;43.15;;;18.33;;
76459;SDS011;65299;46.084;18.762;2023-03-05T16:00:12;49.03;;;20.50;;
76459;SDS011;65299;46.084;18.762;2023-03-05T16:03:14;20.17;;;10.05;;
76459;SDS011;65299;46.084;18.762;2023-03-05T16:06:15;12.98;;;7.60;;
76459;SDS011;65299;46.084;18.762;2023-03-05T16:09:21;15.07;;;7.30;;
76459;SDS011;65299;46.084;18.762;2023-03-05T16:12:23;19.50;;;11.02;;
76459;SDS011;65299;46.084;18.762;2023-03-05T16:15:27;20.33;;;11.38;;
76459;SDS011;65299;46.084;18.762;2023-03-05T16:18:28;15.50;;;9.40;;
76459;SDS011;65299;46.084;18.762;2023-03-05T16:21:31;29.75;;;15.40;;
76459;SDS011;65299;46.084;18.762;2023-03-05T16:24:31;42.67;;;20.30;;
76459;SDS011;65299;46.084;18.762;2023-03-05T16:27:32;27.77;;;13.43;;
76459;SDS011;65299;46.084;18.762;2023-03-05T16:30:32;22.60;;;10.67;;
76459;SDS011;65299;46.084;18.762;2023-03-05T16:33:33;17.30;;;8.32;;
76459;SDS011;65299;46.084;18.762;2023-03-05T16:36:33;19.63;;;9.50;;
76459;SDS011;65299;46.084;18.762;2023-03-05T16:39:34;15.05;;;7.95;;
76459;SDS011;65299;46.084;18.762;2023-03-05T16:42:35;12.90;;;6.53;;
76459;SDS011;65299;46.084;18.762;2023-03-05T16:45:35;14.97;;;7.10;;
76459;SDS011;65299;46.084;18.762;2023-03-05T16:48:36;11.27;;;5.88;;
76459;SDS011;65299;46.084;18.762;2023-03-05T16:51:37;10.97;;;5.87;;
76459;SDS011;65299;46.084;18.762;2023-03-05T16:54:37;11.70;;;5.77;;
76459;SDS011;65299;46.084;18.762;2023-03-05T16:57:40;13.63;;;6.57;;
76459;SDS011;65299;46.084;18.762;2023-03-05T17:00:40;17.50;;;6.50;;
76459;SDS011;65299;46.084;18.762;2023-03-05T17:03:41;17.33;;;8.03;;
76459;SDS011;65299;46.084;18.762;2023-03-05T17:06:43;25.23;;;12.30;;
76459;SDS011;65299;46.084;18.762;2023-03-05T17:09:45;23.17;;;12.00;;
76459;SDS011;65299;46.084;18.762;2023-03-05T17:12:47;23.70;;;11.52;;
76459;SDS011;65299;46.084;18.762;2023-03-05T17:15:48;28.15;;;12.80;;
76459;SDS011;65299;46.084;18.762;2023-03-05T17:18:48;27.53;;;13.77;;
76459;SDS011;65299;46.084;18.762;2023-03-05T17:21:49;34.77;;;15.43;;
76459;SDS011;65299;46.084;18.762;2023-03-05T17:24:51;29.35;;;14.18;;
76459;SDS011;65299;46.084;18.762;2023-03-05T17:27:52;35.20;;;14.90;;
76459;SDS011;65299;46.084;18.762;2023-03-05T17:30:53;31.07;;;14.87;;
76459;SDS011;65299;46.084;18.762;2023-03-05T17:33:55;29.25;;;13.88;;
76459;SDS011;65299;46.084;18.762;2023-03-05T17:36:57;27.95;;;13.93;;
76459;SDS011;65299;46.084;18.762;2023-03-05T17:39:58;45.50;;;22.03;;
76459;SDS011;65299;46.084;18.762;2023-03-05T17:42:58;43.63;;;21.88;;
76459;SDS011;65299;46.084;18.762;2023-03-05T17:45:59;40.77;;;19.37;;
76459;SDS011;65299;46.084;18.762;2023-03-05T17:49:00;34.42;;;17.17;;
76459;SDS011;65299;46.084;18.762;2023-03-05T17:52:01;29.37;;;14.50;;
76459;SDS011;65299;46.084;18.762;2023-03-05T17:55:01;53.20;;;19.00;;
76459;SDS011;65299;46.084;18.762;2023-03-05T17:58:07;66.83;;;26.20;;
76459;SDS011;65299;46.084;18.762;2023-03-05T18:01:08;59.30;;;24.95;;
76459;SDS011;65299;46.084;18.762;2023-03-05T18:04:09;45.63;;;19.90;;
76459;SDS011;65299;46.084;18.762;2023-03-05T18:07:10;52.72;;;22.65;;
76459;SDS011;65299;46.084;18.762;2023-03-05T18:10:11;51.70;;;21.77;;
76459;SDS011;65299;46.084;18.762;2023-03-05T18:13:12;51.50;;;21.88;;
76459;SDS011;65299;46.084;18.762;2023-03-05T18:16:12;61.72;;;28.17;;
76459;SDS011;65299;46.084;18.762;2023-03-05T18:19:15;51.60;;;23.13;;
76459;SDS011;65299;46.084;18.762;2023-03-05T18:22:17;41.25;;;19.10;;
76459;SDS011;65299;46.084;18.762;2023-03-05T18:25:18;48.10;;;19.23;;
76459;SDS011;65299;46.084;18.762;2023-03-05T18:28:19;43.93;;;19.23;;
76459;SDS011;65299;46.084;18.762;2023-03-05T18:31:19;41.42;;;18.52;;
76459;SDS011;65299;46.084;18.762;2023-03-05T18:34:20;44.50;;;19.33;;
76459;SDS011;65299;46.084;18.762;2023-03-05T18:37:20;48.13;;;21.00;;
76459;SDS011;65299;46.084;18.762;2023-03-05T18:40:21;46.95;;;21.88;;
76459;SDS011;65299;46.084;18.762;2023-03-05T18:43:23;51.00;;;22.80;;
76459;SDS011;65299;46.084;18.762;2023-03-05T18:46:24;48.47;;;21.20;;
76459;SDS011;65299;46.084;18.762;2023-03-05T18:49:24;61.30;;;26.70;;
76459;SDS011;65299;46.084;18.762;2023-03-05T18:52:26;46.17;;;21.55;;
76459;SDS011;65299;46.084;18.762;2023-03-05T18:55:27;45.20;;;19.70;;
76459;SDS011;65299;46.084;18.762;2023-03-05T18:58:28;44.47;;;19.63;;
76459;SDS011;65299;46.084;18.762;2023-03-05T19:01:29;37.78;;;19.27;;
76459;SDS011;65299;46.084;18.762;2023-03-05T19:04:29;48.93;;;20.63;;